This is the latest recevied weather packets stored in our database for station/object KC4MCQ-10. If no packets are shown the sender has not sent any weather packets the latest 10 day(s).
| Time | Temp. | Humidity | Pressure | Rain* | Wind** | Luminosity | Snow |
|---|---|---|---|---|---|---|---|
| 1787840554 | 28.33° C | 82% | 1017.4 hPa | 10.41 mm | 1.79 m/s, 267° | - | - |
| 1787839947 | 27.78° C | 83% | 1017.1 hPa | 10.41 mm | 1.34 m/s, 267° | - | - |
| 1787839346 | 27.22° C | 84% | 1017.1 hPa | 10.41 mm | 0.45 m/s, 196° | - | - |
| 1787838743 | 26.67° C | 87% | 1017 hPa | 10.41 mm | 1.79 m/s, 260° | - | - |
| 1787838139 | 26.11° C | 88% | 1017 hPa | 10.41 mm | 0.89 m/s, 229° | - | - |
| 1787837539 | 25° C | 90% | 1017.2 hPa | 10.41 mm | 1.34 m/s, 263° | - | - |
| 1787835730 | 23.89° C | 93% | 1017.2 hPa | 10.41 mm | 0.45 m/s, 198° | - | - |
| 1787833927 | 22.78° C | 94% | 1017.2 hPa | 10.41 mm | 1.34 m/s, 179° | - | - |
| 1787833327 | 22.78° C | 94% | 1017.3 hPa | 10.41 mm | 0.89 m/s, 178° | - | - |
| 1787832726 | 22.22° C | 94% | 1017.4 hPa | 10.41 mm | 0.45 m/s, 167° | - | - |
| 1787832125 | 22.22° C | 94% | 1017.3 hPa | 10.41 mm | 0 m/s | - | - |
| 1787831520 | 22.22° C | 94% | 1017.1 hPa | 10.41 mm | 0 m/s | - | - |
| 1787830918 | 21.67° C | 94% | 1017.2 hPa | 10.41 mm | 0 m/s | - | - |
| 1787830316 | 21.67° C | 94% | 1017.1 hPa | 10.41 mm | 0 m/s | - | - |
| 1787829705 | 21.67° C | 93% | 1016.7 hPa | 10.41 mm | 0 m/s | - | - |
| 1787829104 | 21.67° C | 93% | 1016.7 hPa | 10.41 mm | 0.45 m/s, 161° | - | - |
| 1787828503 | 21.11° C | 93% | 1016.4 hPa | 10.41 mm | 0 m/s | - | - |
| 1787827902 | 21.67° C | 93% | 1016 hPa | 10.41 mm | 0 m/s | - | - |
| 1787827299 | 21.67° C | 93% | 1016.1 hPa | 10.41 mm | 0.45 m/s, 161° | - | - |
| 1787826698 | 21.67° C | 94% | 1016 hPa | 10.41 mm | 0 m/s | - | - |
| 1787826098 | 21.67° C | 93% | 1016 hPa | 10.41 mm | 0 m/s | - | - |
| 1787825496 | 21.67° C | 93% | 1016 hPa | 10.41 mm | 0.45 m/s, 161° | - | - |
| 1787824895 | 21.67° C | 93% | 1015.8 hPa | 10.41 mm | 0 m/s | - | - |
| 1787824289 | 21.67° C | 93% | 1015.7 hPa | 10.41 mm | 0 m/s | - | - |
| 1787823687 | 21.67° C | 93% | 1016.2 hPa | 10.41 mm | 0.45 m/s, 161° | - | - |
* Rain latest 24 hours (hover to see other rain measurements)
** Current wind speed in m/s (hover to see current wind gust speed)